Weather History for Midland Airpark, TX

Change the Weather History Date:

Friday, August 30, 2013

  Actual Average (KMAF) Record (KMAF)
Temperature  
Mean Temperature 85 °F 79 °F  
Max Temperature 98 °F 92 °F 106 °F (2011)
Min Temperature 72 °F 67 °F 60 °F (2012)
Cooling Degree Days 20 14  
Month to date cooling degree days 487  
Year to date cooling degree days 1869  
Since 1 June cooling degree days 1480  
Growing Degree Days 35 (Base 50)    
Moisture  
Dew Point 52 °F    
Average Humidity 32    
Maximum Humidity 58    
Minimum Humidity 15    
Precipitation  
Precipitation 0.00 in 0.07 in 2.26 in (2001)
Month to date precipitation 1.78  
Year to date precipitation 9.66  
Sea Level Pressure  
Sea Level Pressure 30.08 in    
Wind  
Wind Speed 9 mph (South)    
Max Wind Speed 15 mph    
Max Gust Speed 24 mph    
Visibility 10 miles    
Events      
T = Trace of Precipitation, MM = Missing Value Source: NWS Daily Summary

Daily Weather History Graph

Daily Weather History Graph

Search for Another Location

Airport:

Trip Planner

Search our weather history database for the weather conditions in past years. The results will help you decide how hot, cold, wet, or windy it might be!

Date:

Astronomy

Aug. 30, 2013 Rise Set
Actual Time 7:22 AM CDT 8:14 PM CDT
Civil Twilight 6:57 AM CDT 8:39 PM CDT
Nautical Twilight 6:28 AM CDT 9:09 PM CDT
Astronomical Twilight 5:57 AM CDT 9:39 PM CDT
Moon 2:13 AM CDT 4:21 PM CDT
Length of Visible Light 13h 41m
Length of Day
12h 51m
Waning Crescent, 29% of the Moon is Illuminated
Aug 30
Waning Crescent
Sep 5
New
Sep 12
First Quarter
Sep 19
Full
Sep 26
Last Quarter

Hourly Weather History & Observations

Time (CDT) Temp. Heat Index Dew Point Humidity Pressure Visibility Wind Dir Wind Speed Gust Speed Precip Events Conditions
12:15 AM 83.5 °F 82.5 °F 55.0 °F 38% 30.11 in 10.0 mi South 12.7 mph 17.3 mph N/A   Clear
12:35 AM 82.9 °F 82.1 °F 55.4 °F 39% 30.11 in 10.0 mi South 11.5 mph - N/A   Clear
12:55 AM 82.4 °F 81.7 °F 55.4 °F 39% 30.12 in 10.0 mi South 11.5 mph 17.3 mph N/A   Clear
1:15 AM 82.0 °F 81.5 °F 55.4 °F 40% 30.11 in 10.0 mi South 11.5 mph - N/A   Clear
1:35 AM 81.7 °F 81.3 °F 55.6 °F 41% 30.10 in 10.0 mi South 11.5 mph - N/A   Clear
1:55 AM 81.5 °F 81.1 °F 55.6 °F 41% 30.10 in 10.0 mi South 9.2 mph - N/A   Clear
2:15 AM 81.3 °F 81.0 °F 55.4 °F 41% 30.11 in 10.0 mi South 10.4 mph - N/A   Clear
2:35 AM 81.1 °F 80.9 °F 55.6 °F 41% 30.10 in 10.0 mi South 9.2 mph - N/A   Clear
2:55 AM 80.6 °F 80.5 °F 55.8 °F 42% 30.10 in 10.0 mi South 10.4 mph - N/A   Clear
3:15 AM 79.9 °F - 55.8 °F 43% 30.11 in 10.0 mi SSW 9.2 mph - N/A   Clear
3:35 AM 79.7 °F - 55.9 °F 44% 30.10 in 10.0 mi SSW 9.2 mph - N/A   Clear
3:55 AM 79.2 °F - 56.1 °F 45% 30.10 in 10.0 mi SSW 6.9 mph - N/A   Clear
4:15 AM 78.8 °F - 56.3 °F 46% 30.10 in 10.0 mi SSW 6.9 mph - N/A   Clear
4:35 AM 78.3 °F - 56.3 °F 47% 30.10 in 10.0 mi SW 6.9 mph - N/A   Clear
4:55 AM 77.7 °F - 56.3 °F 48% 30.10 in 10.0 mi SW 5.8 mph - N/A   Clear
5:15 AM 77.0 °F - 56.3 °F 49% 30.10 in 10.0 mi SW 5.8 mph - N/A   Clear
5:35 AM 76.6 °F - 56.5 °F 50% 30.10 in 10.0 mi SW 4.6 mph - N/A   Clear
5:55 AM 76.3 °F - 56.5 °F 50% 30.10 in 10.0 mi SW 4.6 mph - N/A   Clear
6:15 AM 75.6 °F - 56.5 °F 51% 30.11 in 10.0 mi WSW 3.5 mph - N/A   Clear
6:35 AM 75.2 °F - 56.5 °F 52% 30.12 in 10.0 mi SW 3.5 mph - N/A   Clear
6:55 AM 75.0 °F - 56.7 °F 53% 30.12 in 10.0 mi WSW 3.5 mph - N/A   Clear
7:15 AM 74.5 °F - 57.0 °F 54% 30.12 in 10.0 mi West 3.5 mph - N/A   Clear
7:35 AM 74.7 °F - 56.8 °F 54% 30.13 in 10.0 mi West 3.5 mph - N/A   Clear
7:55 AM 72.7 °F - 57.2 °F 58% 30.13 in 10.0 mi Calm Calm - N/A   Clear
8:55 AM 79.2 °F - 57.2 °F 47% 30.15 in 10.0 mi SSW 5.8 mph - N/A   Clear
9:15 AM 81.0 °F 81.0 °F 56.8 °F 44% 30.15 in 10.0 mi SSW 6.9 mph - N/A   Clear
9:35 AM 82.6 °F 82.0 °F 56.3 °F 40% 30.15 in 10.0 mi SSW 8.1 mph - N/A   Clear
9:55 AM 83.3 °F 82.6 °F 56.3 °F 40% 30.15 in 10.0 mi SSW 9.2 mph - N/A   Clear
10:15 AM 84.9 °F 83.7 °F 55.6 °F 37% 30.15 in 10.0 mi South 6.9 mph - N/A   Clear
10:35 AM 86.0 °F 84.5 °F 55.0 °F 35% 30.15 in 10.0 mi SSW 8.1 mph - N/A   Clear
10:55 AM 87.1 °F 85.1 °F 53.8 °F 32% 30.15 in 10.0 mi SSW 12.7 mph - N/A   Clear
11:15 AM 89.1 °F 86.7 °F 53.1 °F 29% 30.14 in 10.0 mi South 10.4 mph - N/A   Clear
11:35 AM 90.0 °F - 52.2 °F 27% 30.14 in 10.0 mi SSE 8.1 mph 16.1 mph N/A   Clear
11:55 AM 90.5 °F - 52.0 °F 27% 30.14 in 10.0 mi SSE 12.7 mph 17.3 mph N/A   Clear
12:15 PM 91.8 °F - 51.4 °F 25% 30.13 in 10.0 mi South 11.5 mph 19.6 mph N/A   Clear
12:35 PM 92.7 °F - 50.9 °F 24% 30.12 in 10.0 mi South 15.0 mph 18.4 mph N/A   Clear
12:55 PM 93.4 °F - 49.1 °F 22% 30.12 in 10.0 mi East 5.8 mph 18.4 mph N/A   Clear
1:15 PM 93.2 °F - 48.4 °F 22% 30.10 in 10.0 mi SSE 11.5 mph - N/A   Clear
1:35 PM 94.6 °F - 48.9 °F 21% 30.10 in 10.0 mi ESE 6.9 mph - N/A   Clear
1:55 PM 95.2 °F - 48.0 °F 20% 30.09 in 10.0 mi South 10.4 mph - N/A   Clear
2:15 PM 95.4 °F - 48.4 °F 20% 30.08 in 10.0 mi SSE 9.2 mph 18.4 mph N/A   Clear
2:35 PM 96.1 °F - 47.8 °F 19% 30.08 in 10.0 mi SE 9.2 mph - N/A   Clear
2:55 PM 96.4 °F - 46.8 °F 18% 30.07 in 10.0 mi South 10.4 mph 24.2 mph N/A   Clear
3:15 PM 96.3 °F - 46.4 °F 18% 30.06 in 10.0 mi SSE 10.4 mph - N/A   Clear
3:35 PM 97.2 °F - 46.2 °F 18% 30.05 in 10.0 mi ESE 6.9 mph - N/A   Clear
3:55 PM 97.0 °F - 43.9 °F 16% 30.04 in 10.0 mi ESE 3.5 mph - N/A   Clear
4:15 PM 98.2 °F - 45.1 °F 16% 30.03 in 10.0 mi East 4.6 mph 11.5 mph N/A   Clear
4:35 PM 96.8 °F - 45.9 °F 17% 30.02 in 10.0 mi SW 4.6 mph - N/A   Clear
4:55 PM 97.9 °F - 44.1 °F 16% 30.02 in 10.0 mi SE 8.1 mph 18.4 mph N/A   Clear
5:15 PM 97.2 °F - 45.0 °F 17% 30.01 in 10.0 mi SSE 12.7 mph 17.3 mph N/A   Clear
5:35 PM 97.3 °F - 45.7 °F 17% 30.01 in 10.0 mi SE 5.8 mph - N/A   Clear
5:55 PM 97.9 °F - 43.3 °F 15% 30.00 in 10.0 mi SE 5.8 mph - N/A   Clear
6:15 PM 97.0 °F - 46.0 °F 18% 30.00 in 10.0 mi SE 8.1 mph - N/A   Clear
6:35 PM 96.4 °F - 46.4 °F 18% 30.00 in 10.0 mi SSE 9.2 mph - N/A   Clear
6:55 PM 96.1 °F - 46.8 °F 18% 30.00 in 10.0 mi SSE 11.5 mph - N/A   Clear
7:15 PM 95.9 °F - 47.1 °F 19% 30.00 in 10.0 mi South 9.2 mph - N/A   Clear
7:35 PM 95.0 °F - 47.8 °F 20% 30.00 in 10.0 mi SSE 8.1 mph - N/A   Clear
7:55 PM 94.5 °F - 47.7 °F 20% 30.00 in 10.0 mi SSE 8.1 mph - N/A   Clear
8:15 PM 93.4 °F - 48.6 °F 22% 30.00 in 10.0 mi SSE 8.1 mph - N/A   Clear
8:35 PM 92.7 °F - 48.7 °F 22% 30.00 in 10.0 mi SSE 8.1 mph - N/A   Clear
8:55 PM 92.3 °F - 49.1 °F 23% 30.01 in 10.0 mi SE 8.1 mph - N/A   Clear
9:15 PM 91.0 °F - 49.1 °F 24% 30.01 in 10.0 mi SSE 6.9 mph - N/A   Clear
9:35 PM 90.3 °F - 50.0 °F 25% 30.01 in 10.0 mi SSE 9.2 mph - N/A   Clear
9:55 PM 88.7 °F - 50.4 °F 27% 30.02 in 10.0 mi SSE 4.6 mph - N/A   Clear
10:15 PM 88.0 °F - 50.9 °F 28% 30.02 in 10.0 mi SSE 5.8 mph - N/A   Clear
10:35 PM 87.1 °F - 51.3 °F 29% 30.03 in 10.0 mi South 6.9 mph - N/A   Clear
10:55 PM 86.4 °F - 51.8 °F 30% 30.02 in 10.0 mi South 8.1 mph - N/A   Clear
11:15 PM 86.9 °F - 52.2 °F 30% 30.03 in 10.0 mi South 9.2 mph - N/A   Clear
11:35 PM 86.5 °F - 52.5 °F 31% 30.02 in 10.0 mi South 9.2 mph - N/A   Clear
11:55 PM 85.6 °F - 52.7 °F 32% 30.02 in 10.0 mi South 9.2 mph - N/A   Clear